Time;durP1;ratioP1;P1;durP2;ratioP2;P2;SDS_P1;SDS_P2;PMS_P1;PMS_P2;Temp;Humidity;BMP_temperature;BMP_pressure;BME280_temperature;BME280_humidity;BME280_pressure;Samples;Min_cycle;Max_cycle;Signal;HPM_P1;HPM_P2
2023/11/23 00:03:01;;;;;;;8.95;3.65;;;;;;;11.06;100.00;102393.34;10374283;28;20046;-71
2023/11/23 00:08:02;;;;;;;13.80;4.25;;;;;;;11.09;100.00;102395.75;10374634;28;20470;-72
2023/11/23 00:13:02;;;;;;;11.18;2.97;;;;;;;11.11;100.00;102387.47;10376108;28;20054;-72
2023/11/23 00:18:03;;;;;;;9.13;3.20;;;;;;;11.12;100.00;102381.03;10375433;28;20041;-72
2023/11/23 00:23:03;;;;;;;12.93;4.05;;;;;;;11.07;100.00;102376.09;10375670;28;20121;-71
2023/11/23 00:28:04;;;;;;;4.05;3.40;;;;;;;11.16;100.00;102374.25;10374471;28;20481;-71
2023/11/23 00:33:04;;;;;;;5.45;4.28;;;;;;;11.13;100.00;102364.56;10373816;28;20046;-71
2023/11/23 00:38:08;;;;;;;8.95;3.83;;;;;;;11.16;100.00;102369.66;10373835;28;20038;-71
2023/11/23 00:43:10;;;;;;;5.07;2.55;;;;;;;11.13;100.00;102364.56;10374450;28;20050;-71
2023/11/23 00:48:11;;;;;;;10.07;3.22;;;;;;;11.16;100.00;102349.84;10389898;28;20062;-72
2023/11/23 00:53:11;;;;;;;8.35;3.03;;;;;;;11.06;100.00;102352.69;10374447;28;20029;-72
2023/11/23 00:58:11;;;;;;;8.35;3.28;;;;;;;10.94;100.00;102346.75;10374425;28;20036;-71
2023/11/23 01:03:12;;;;;;;10.23;3.60;;;;;;;10.82;100.00;102348.06;10373302;28;20465;-71
2023/11/23 01:08:14;;;;;;;11.68;3.45;;;;;;;10.77;100.00;102353.09;10371429;28;20038;-72
2023/11/23 01:13:15;;;;;;;10.82;4.05;;;;;;;10.68;100.00;102346.81;10372992;28;20493;-71
2023/11/23 01:18:15;;;;;;;7.53;3.60;;;;;;;10.51;100.00;102346.91;10372888;28;20112;-72
2023/11/23 01:23:16;;;;;;;8.38;2.40;;;;;;;10.34;100.00;102341.41;10372543;28;20330;-71
2023/11/23 01:28:17;;;;;;;5.85;3.13;;;;;;;10.32;100.00;102337.16;10371991;28;20037;-71
2023/11/23 01:33:17;;;;;;;3.63;3.33;;;;;;;10.28;100.00;102336.63;10371316;28;20042;-71
2023/11/23 01:38:18;;;;;;;9.25;3.53;;;;;;;10.24;100.00;102336.06;10372840;28;20042;-72
2023/11/23 01:43:18;;;;;;;8.40;4.90;;;;;;;10.15;100.00;102328.06;10371964;28;20493;-72
2023/11/23 01:48:19;;;;;;;13.60;4.63;;;;;;;10.07;100.00;102334.25;10371283;28;20030;-72
2023/11/23 01:53:19;;;;;;;15.65;4.03;;;;;;;10.07;100.00;102336.13;10371912;28;20118;-72
2023/11/23 01:58:20;;;;;;;14.45;3.72;;;;;;;10.08;100.00;102343.22;10371832;28;20045;-72
2023/11/23 02:03:21;;;;;;;7.40;3.22;;;;;;;10.17;100.00;102339.56;10370595;28;20049;-72
2023/11/23 02:08:21;;;;;;;5.70;2.58;;;;;;;10.24;100.00;102352.31;10369906;28;20042;-72
2023/11/23 02:13:22;;;;;;;10.57;4.07;;;;;;;10.06;100.00;102345.25;10370181;28;20118;-71
2023/11/23 02:18:22;;;;;;;10.52;3.83;;;;;;;10.02;100.00;102340.16;10371438;28;20129;-71
2023/11/23 02:23:22;;;;;;;11.52;4.43;;;;;;;10.06;100.00;102348.81;10371509;28;20476;-71
2023/11/23 02:28:26;;;;;;;18.52;5.40;;;;;;;10.08;100.00;102341.34;10370958;28;20073;-72
2023/11/23 02:33:26;;;;;;;19.50;3.63;;;;;;;10.07;100.00;102338.81;10378853;28;20462;-72
2023/11/23 02:38:27;;;;;;;6.38;3.17;;;;;;;10.07;100.00;102334.25;10378816;28;20049;-72
2023/11/23 02:43:27;;;;;;;13.45;4.00;;;;;;;10.11;100.00;102323.94;10378888;28;20034;-71
2023/11/23 02:48:29;;;;;;;13.27;4.28;;;;;;;10.11;100.00;102335.63;10378645;28;20033;-72
2023/11/23 02:53:32;;;;;;;23.15;3.97;;;;;;;10.09;100.00;102342.22;10377178;28;20042;-71
2023/11/23 02:58:33;;;;;;;5.57;3.15;;;;;;;10.04;100.00;102331.03;10376657;28;20078;-71
2023/11/23 03:03:33;;;;;;;8.07;3.33;;;;;;;10.13;100.00;102328.22;10378641;28;20053;-71
2023/11/23 03:08:34;;;;;;;9.02;3.50;;;;;;;10.21;100.00;102324.69;10377232;28;20038;-72
2023/11/23 03:13:35;;;;;;;7.82;3.05;;;;;;;10.13;100.00;102320.09;10376870;28;20033;-71
2023/11/23 03:18:36;;;;;;;13.00;3.60;;;;;;;10.09;100.00;102329.53;10377357;28;20042;-72
2023/11/23 03:23:37;;;;;;;4.72;3.17;;;;;;;10.08;100.00;102326.97;10375241;28;20033;-71
2023/11/23 03:28:37;;;;;;;6.25;2.90;;;;;;;10.08;100.00;102325.13;10376718;28;20041;-71
2023/11/23 03:33:38;;;;;;;14.82;3.47;;;;;;;10.04;100.00;102326.44;10376268;28;20140;-72
2023/11/23 03:38:38;;;;;;;17.42;4.03;;;;;;;9.97;100.00;102318.13;10376919;28;20045;-71
2023/11/23 03:43:38;;;;;;;8.82;4.38;;;;;;;9.94;100.00;102310.31;10374693;28;20038;-71
2023/11/23 03:48:40;;;;;;;12.95;4.75;;;;;;;9.92;100.00;102306.06;10375626;28;20056;-72
2023/11/23 03:53:40;;;;;;;6.90;4.43;;;;;;;9.91;100.00;102315.22;10375737;28;20041;-72
2023/11/23 03:58:42;;;;;;;9.70;4.43;;;;;;;9.91;100.00;102309.78;10374797;28;20076;-72
2023/11/23 04:03:44;;;;;;;6.10;3.22;;;;;;;9.90;100.00;102318.94;10357026;28;20046;-71
2023/11/23 04:08:44;;;;;;;16.90;3.13;;;;;;;9.83;100.00;102305.19;10375153;28;20079;-71
2023/11/23 04:13:45;;;;;;;8.90;3.60;;;;;;;9.83;100.00;102299.78;10375237;28;20049;-71
2023/11/23 04:18:46;;;;;;;13.50;2.80;;;;;;;9.81;100.00;102299.06;10375502;28;20447;-72
2023/11/23 04:23:46;;;;;;;8.80;2.45;;;;;;;9.86;100.00;102313.00;10375107;28;20106;-72
2023/11/23 04:28:48;;;;;;;5.95;3.40;;;;;;;9.84;100.00;102312.28;10372872;28;20049;-71
2023/11/23 04:33:48;;;;;;;13.48;2.83;;;;;;;9.99;100.00;102313.41;10374548;28;20099;-72
2023/11/23 04:38:49;;;;;;;9.90;3.72;;;;;;;10.20;100.00;102307.59;10373668;28;20042;-72
2023/11/23 04:43:49;;;;;;;9.18;3.42;;;;;;;10.14;100.00;102310.09;10373324;28;20380;-72
2023/11/23 04:48:49;;;;;;;15.80;5.05;;;;;;;10.06;100.00;102315.47;10373324;28;20438;-72
2023/11/23 04:53:50;;;;;;;3.83;3.22;;;;;;;9.97;100.00;102307.28;10372445;28;20030;-71
2023/11/23 04:58:50;;;;;;;17.73;4.43;;;;;;;9.96;100.00;102311.03;10373236;28;20030;-71
2023/11/23 05:03:52;;;;;;;13.10;3.08;;;;;;;10.10;100.00;102311.44;10374955;28;20462;-71
2023/11/23 05:08:53;;;;;;;17.23;3.95;;;;;;;10.04;100.00;102309.38;10371964;28;20399;-72
2023/11/23 05:13:53;;;;;;;5.53;3.65;;;;;;;10.10;100.00;102309.56;10373321;28;20092;-72
2023/11/23 05:18:53;;;;;;;10.05;4.25;;;;;;;10.07;100.00;102306.34;10372030;28;20030;-71
2023/11/23 05:23:54;;;;;;;12.18;3.47;;;;;;;10.06;100.00;102285.72;10370832;28;20381;-71
2023/11/23 05:28:54;;;;;;;11.45;3.25;;;;;;;10.09;100.00;102288.09;10371674;28;20034;-72
2023/11/23 05:33:55;;;;;;;3.33;3.03;;;;;;;10.12;100.00;102283.22;10371741;28;20414;-72
2023/11/23 05:38:55;;;;;;;10.88;4.63;;;;;;;10.30;100.00;102285.84;10370999;28;20076;-72
2023/11/23 05:43:55;;;;;;;8.63;4.38;;;;;;;10.41;100.00;102282.03;10370479;28;20030;-72
2023/11/23 05:48:56;;;;;;;8.73;4.35;;;;;;;10.34;100.00;102276.41;10371317;28;20116;-72
2023/11/23 05:53:56;;;;;;;9.38;4.07;;;;;;;10.19;100.00;102269.88;10371476;28;20037;-72
2023/11/23 05:58:57;;;;;;;14.07;4.15;;;;;;;10.09;100.00;102255.63;10371291;28;20045;-72
2023/11/23 06:03:57;;;;;;;18.98;4.10;;;;;;;10.00;100.00;102250.16;10372444;28;20483;-72
2023/11/23 06:08:58;;;;;;;7.32;4.10;;;;;;;10.02;100.00;102253.56;10379122;28;20060;-72
2023/11/23 06:13:58;;;;;;;14.25;3.20;;;;;;;10.01;100.00;102256.41;10377966;28;20030;-71
2023/11/23 06:18:58;;;;;;;16.02;3.70;;;;;;;9.99;100.00;102261.16;10379158;28;20038;-71
2023/11/23 06:24:00;;;;;;;9.40;4.07;;;;;;;9.94;100.00;102256.19;10378691;28;20041;-71
2023/11/23 06:29:00;;;;;;;10.23;4.43;;;;;;;9.93;100.00;102250.97;10379600;28;20034;-71
2023/11/23 06:34:01;;;;;;;6.90;3.92;;;;;;;9.94;100.00;102245.38;10377820;28;20038;-71
2023/11/23 06:39:01;;;;;;;13.35;3.80;;;;;;;9.88;100.00;102231.63;10379514;28;20421;-71
2023/11/23 06:44:02;;;;;;;12.68;4.03;;;;;;;9.99;100.00;102231.38;10378039;28;20120;-71
2023/11/23 06:49:02;;;;;;;20.48;4.90;;;;;;;10.00;100.00;102241.19;10377402;28;20474;-72
2023/11/23 06:54:03;;;;;;;5.35;3.28;;;;;;;10.12;100.00;102244.47;10376255;28;20038;-72
2023/11/23 06:59:04;;;;;;;13.48;3.78;;;;;;;10.13;100.00;102243.44;10377147;28;20073;-71
2023/11/23 07:04:04;;;;;;;11.23;4.45;;;;;;;10.12;100.00;102242.59;10375375;28;20434;-71
2023/11/23 07:09:06;;;;;;;11.25;4.32;;;;;;;10.16;100.00;102240.41;10376936;28;20026;-71
2023/11/23 07:14:07;;;;;;;21.42;6.28;;;;;;;10.20;100.00;102229.09;10376259;28;20060;-71
2023/11/23 07:19:07;;;;;;;13.50;4.30;;;;;;;10.25;100.00;102251.13;10375300;28;20048;-71
2023/11/23 07:24:08;;;;;;;14.40;4.60;;;;;;;10.20;100.00;102258.88;10375589;28;20065;-71
2023/11/23 07:29:08;;;;;;;15.52;4.28;;;;;;;10.28;100.00;102265.41;10375780;28;20041;-71
2023/11/23 07:34:09;;;;;;;10.32;4.80;;;;;;;10.40;100.00;102261.34;10376237;28;20418;-71
2023/11/23 07:39:10;;;;;;;11.30;4.25;;;;;;;10.58;100.00;102258.56;10375959;28;20188;-72
2023/11/23 07:44:11;;;;;;;7.03;2.90;;;;;;;10.66;100.00;102242.34;10375583;28;20077;-72
2023/11/23 07:49:11;;;;;;;8.25;3.97;;;;;;;10.94;100.00;102243.75;10377104;28;20481;-72
2023/11/23 07:54:11;;;;;;;6.55;2.85;;;;;;;11.60;100.00;102249.19;10375446;28;20030;-71
2023/11/23 07:59:12;;;;;;;15.60;4.63;;;;;;;12.30;100.00;102232.25;10374836;28;20397;-72
2023/11/23 08:04:12;;;;;;;7.18;3.13;;;;;;;12.20;100.00;102234.31;10374132;28;20025;-72
2023/11/23 08:09:19;;;;;;;12.88;3.50;;;;;;;11.99;100.00;102224.03;10374735;28;20084;-71
2023/11/23 08:14:20;;;;;;;8.13;3.05;;;;;;;11.96;100.00;102237.94;10374653;28;20461;-72
2023/11/23 08:19:21;;;;;;;10.98;3.22;;;;;;;12.05;100.00;102239.63;10374603;28;20042;-71
2023/11/23 08:24:22;;;;;;;5.82;3.22;;;;;;;12.13;100.00;102227.91;10373149;28;20088;-72
2023/11/23 08:29:23;;;;;;;4.10;2.35;;;;;;;11.88;100.00;102183.69;10373674;28;20467;-72
2023/11/23 08:34:24;;;;;;;6.20;3.35;;;;;;;12.98;100.00;102179.81;10373195;28;20421;-72
2023/11/23 08:39:24;;;;;;;7.25;4.05;;;;;;;13.70;100.00;102197.59;10372963;28;20082;-72
2023/11/23 08:44:25;;;;;;;15.52;3.38;;;;;;;14.23;100.00;102206.50;10373635;28;20378;-72
2023/11/23 08:49:26;;;;;;;5.15;2.65;;;;;;;14.56;100.00;102181.56;10373159;28;20363;-72
2023/11/23 08:54:26;;;;;;;5.40;3.08;;;;;;;15.24;100.00;102184.72;10373095;28;20133;-72
2023/11/23 08:59:27;;;;;;;19.83;3.53;;;;;;;14.98;100.00;102175.28;10373016;28;20155;-72
2023/11/23 09:04:29;;;;;;;9.60;3.75;;;;;;;14.00;100.00;102173.06;10372455;28;20038;-71
2023/11/23 09:09:29;;;;;;;10.75;2.85;;;;;;;13.45;100.00;102159.72;10372686;28;20436;-71
2023/11/23 09:14:29;;;;;;;6.05;2.95;;;;;;;13.29;100.00;102170.78;10370501;28;20042;-72
2023/11/23 09:19:31;;;;;;;9.30;2.80;;;;;;;13.21;100.00;102184.44;10372042;28;20121;-71
2023/11/23 09:24:32;;;;;;;7.25;3.17;;;;;;;13.43;100.00;102161.81;10372433;28;20037;-72
2023/11/23 09:29:32;;;;;;;3.47;2.65;;;;;;;13.48;100.00;102144.91;10371217;28;20540;-71
2023/11/23 09:34:33;;;;;;;6.28;2.65;;;;;;;13.57;100.00;102160.13;10371664;28;20034;-72
2023/11/23 09:39:34;;;;;;;8.13;2.25;;;;;;;13.61;100.00;102149.69;10371773;28;20042;-72
2023/11/23 09:44:35;;;;;;;6.40;2.85;;;;;;;14.73;100.00;102128.47;10370981;28;20049;-72
2023/11/23 09:49:37;;;;;;;11.35;2.88;;;;;;;14.64;100.00;102108.69;10370078;28;20481;-72
2023/11/23 09:54:37;;;;;;;5.25;2.55;;;;;;;13.92;100.00;102122.28;10370342;28;20099;-72
2023/11/23 09:59:38;;;;;;;5.38;2.78;;;;;;;13.82;100.00;102130.75;10371615;28;20160;-72
2023/11/23 10:04:38;;;;;;;5.05;3.72;;;;;;;13.47;100.00;102138.63;10371542;28;20034;-72
2023/11/23 10:09:39;;;;;;;3.25;1.95;;;;;;;13.48;100.00;102148.47;10370197;28;20122;-72
2023/11/23 10:14:40;;;;;;;4.25;3.88;;;;;;;13.49;100.00;102139.25;10371113;28;20053;-72
2023/11/23 10:19:40;;;;;;;9.63;3.55;;;;;;;13.64;100.00;102125.66;10369436;28;20109;-72
2023/11/23 10:24:49;;;;;;;3.55;2.05;;;;;;;13.59;100.00;102140.88;10371478;28;20506;-72
2023/11/23 10:29:50;;;;;;;4.07;2.63;;;;;;;13.41;100.00;102125.75;10369917;28;20025;-72
2023/11/23 10:34:50;;;;;;;9.63;2.72;;;;;;;13.32;100.00;102112.44;10370677;28;20113;-72
2023/11/23 10:39:52;;;;;;;9.90;2.35;;;;;;;13.23;100.00;102114.34;10369344;28;20091;-72
2023/11/23 10:44:53;;;;;;;5.28;3.92;;;;;;;13.22;100.00;102091.75;10369405;28;20038;-71
2023/11/23 10:49:53;;;;;;;6.90;2.72;;;;;;;13.31;100.00;102086.25;10337687;28;20358;-72
2023/11/23 10:54:54;;;;;;;12.38;4.93;;;;;;;13.40;100.00;102075.09;10377153;28;20061;-71
2023/11/23 10:59:55;;;;;;;9.05;4.05;;;;;;;13.34;100.00;102059.53;10377583;28;20050;-72
2023/11/23 11:04:58;;;;;;;3.80;3.03;;;;;;;13.36;100.00;102043.84;10361052;28;20431;-72
2023/11/23 11:10:00;;;;;;;7.40;3.65;;;;;;;13.39;100.00;102007.25;10377426;28;20041;-72
2023/11/23 11:15:02;;;;;;;11.82;3.40;;;;;;;13.65;100.00;101998.59;10375853;28;20326;-72
2023/11/23 11:20:10;;;;;;;7.50;4.03;;;;;;;13.85;100.00;102005.13;10377186;28;20038;-72
2023/11/23 11:25:13;;;;;;;7.18;3.92;;;;;;;14.43;100.00;101997.72;10376524;28;20468;-72
2023/11/23 11:30:14;;;;;;;20.38;3.83;;;;;;;14.26;100.00;101984.56;10376504;28;20046;-72
2023/11/23 11:35:18;;;;;;;5.53;4.13;;;;;;;14.07;100.00;101986.06;10376748;28;20065;-72
2023/11/23 11:40:19;;;;;;;10.10;3.72;;;;;;;13.94;100.00;101990.34;10375415;28;20128;-72
2023/11/23 11:45:20;;;;;;;12.25;3.80;;;;;;;13.94;100.00;101982.19;10376826;28;20121;-72
2023/11/23 11:50:20;;;;;;;7.75;3.42;;;;;;;14.36;100.00;101976.94;10375825;28;20044;-72
2023/11/23 11:55:21;;;;;;;7.72;3.45;;;;;;;14.45;100.00;101956.63;10375588;28;20038;-72
2023/11/23 12:00:21;;;;;;;9.15;3.53;;;;;;;14.47;100.00;101927.31;10373875;28;20058;-72
2023/11/23 12:05:22;;;;;;;8.30;3.70;;;;;;;14.39;100.00;101936.50;10374018;28;20095;-72
2023/11/23 12:10:23;;;;;;;5.50;3.75;;;;;;;14.11;100.00;101932.91;10375770;28;20033;-72
2023/11/23 12:15:23;;;;;;;8.15;4.05;;;;;;;14.10;100.00;101934.78;10374184;28;20030;-72
2023/11/23 12:20:35;;;;;;;16.08;3.63;;;;;;;14.47;100.00;101932.78;10375106;28;20038;-72
2023/11/23 12:25:35;;;;;;;12.23;4.00;;;;;;;14.44;100.00;101903.19;10374382;28;20034;-72
2023/11/23 12:30:35;;;;;;;9.85;4.68;;;;;;;14.31;100.00;101894.91;10374815;28;20034;-72
2023/11/23 12:35:36;;;;;;;6.65;3.40;;;;;;;14.10;100.00;101887.59;10374457;28;20061;-72
2023/11/23 12:40:37;;;;;;;7.72;3.45;;;;;;;13.79;100.00;101875.22;10372793;28;20033;-72
2023/11/23 12:45:38;;;;;;;7.22;3.67;;;;;;;13.69;100.00;101913.63;10373655;28;20402;-72
2023/11/23 12:50:38;;;;;;;8.82;4.38;;;;;;;13.79;100.00;101890.69;10373548;28;20037;-72
2023/11/23 12:55:39;;;;;;;9.00;3.83;;;;;;;13.72;100.00;101883.31;10374516;28;20123;-72
2023/11/23 13:00:41;;;;;;;9.93;3.60;;;;;;;13.45;100.00;101873.19;10373236;28;20081;-72
2023/11/23 13:05:42;;;;;;;14.13;4.07;;;;;;;13.48;100.00;101864.63;10373782;28;20093;-72
2023/11/23 13:10:43;;;;;;;7.82;4.13;;;;;;;13.25;100.00;101824.84;10373070;28;20030;-71
2023/11/23 13:15:44;;;;;;;12.38;3.83;;;;;;;13.17;100.00;101841.22;10371326;28;20470;-71
2023/11/23 13:20:44;;;;;;;12.27;4.15;;;;;;;13.19;100.00;101832.88;10371137;28;20045;-71
2023/11/23 13:25:45;;;;;;;10.35;3.17;;;;;;;13.08;100.00;101839.69;10371025;28;20096;-72
2023/11/23 13:30:45;;;;;;;32.25;4.82;;;;;;;12.95;100.00;101851.22;10371769;28;20476;-72
2023/11/23 13:35:46;;;;;;;20.60;5.60;;;;;;;12.75;100.00;101833.81;10373023;28;20045;-71
2023/11/23 13:40:49;;;;;;;19.55;4.93;;;;;;;12.79;100.00;101824.25;10372356;28;20030;-72
2023/11/23 13:45:49;;;;;;;26.15;5.30;;;;;;;12.92;100.00;101815.41;10371975;28;20477;-71
2023/11/23 13:50:50;;;;;;;10.07;3.63;;;;;;;12.93;100.00;101814.41;10371991;28;20076;-72
2023/11/23 13:55:50;;;;;;;11.13;4.65;;;;;;;12.91;100.00;101811.84;10370020;28;20193;-72
2023/11/23 14:00:52;;;;;;;9.13;2.78;;;;;;;12.90;100.00;101785.72;10372131;28;20046;-72
2023/11/23 14:05:52;;;;;;;13.70;3.67;;;;;;;13.07;100.00;101778.16;10353930;28;20057;-72
2023/11/23 14:10:53;;;;;;;4.63;2.58;;;;;;;13.01;100.00;101787.91;10372671;28;20129;-72
2023/11/23 14:15:53;;;;;;;18.77;4.00;;;;;;;13.02;100.00;101775.19;10371217;28;20172;-72
2023/11/23 14:20:53;;;;;;;4.40;2.80;;;;;;;13.02;100.00;101753.44;10353143;28;20058;-72
2023/11/23 14:25:54;;;;;;;7.30;3.08;;;;;;;13.01;100.00;101743.56;10372267;28;20038;-72
2023/11/23 14:30:54;;;;;;;13.88;3.28;;;;;;;12.94;100.00;101738.06;10379517;28;20560;-71
2023/11/23 14:35:56;;;;;;;10.90;4.65;;;;;;;12.80;100.00;101720.78;10378946;28;20120;-72
2023/11/23 14:40:57;;;;;;;6.63;2.88;;;;;;;12.78;100.00;101713.84;10379102;28;20034;-72
2023/11/23 14:45:58;;;;;;;16.58;4.28;;;;;;;12.63;100.00;101722.03;10379850;28;20033;-72
2023/11/23 14:50:59;;;;;;;7.47;4.68;;;;;;;12.47;100.00;101717.66;10376658;28;20041;-72
2023/11/23 14:56:00;;;;;;;11.73;4.22;;;;;;;12.19;100.00;101722.97;10378817;28;20149;-72
2023/11/23 15:01:00;;;;;;;15.00;5.90;;;;;;;12.23;100.00;101732.41;10377971;28;20347;-72
2023/11/23 15:06:01;;;;;;;10.75;4.43;;;;;;;12.23;100.00;101729.69;10377202;28;20037;-72
2023/11/23 15:11:01;;;;;;;3.92;3.63;;;;;;;12.10;100.00;101745.81;10377549;28;20026;-72
2023/11/23 15:16:01;;;;;;;12.65;4.15;;;;;;;11.99;100.00;101741.66;10377806;28;20080;-72
2023/11/23 15:21:03;;;;;;;15.50;4.43;;;;;;;11.93;100.00;101733.41;10378124;28;20038;-72
2023/11/23 15:26:04;;;;;;;11.70;4.55;;;;;;;11.90;100.00;101722.94;10377875;28;20388;-71
2023/11/23 15:31:06;;;;;;;11.98;4.00;;;;;;;11.92;100.00;101729.03;10377090;28;20045;-71
2023/11/23 15:36:07;;;;;;;11.88;4.40;;;;;;;12.04;100.00;101722.09;10376211;28;20034;-71
2023/11/23 15:41:07;;;;;;;8.48;3.70;;;;;;;12.18;100.00;101718.53;10377391;28;20106;-72
2023/11/23 15:46:07;;;;;;;10.18;4.75;;;;;;;12.32;100.00;101716.84;10376341;28;20058;-72
2023/11/23 15:51:08;;;;;;;5.68;3.95;;;;;;;12.29;100.00;101707.22;10374996;28;20525;-71
2023/11/23 15:56:14;;;;;;;19.45;5.45;;;;;;;12.37;100.00;101702.69;10374755;28;20041;-71
2023/11/23 16:01:21;;;;;;;10.60;4.10;;;;;;;12.38;100.00;101697.09;10374257;28;20440;-71
2023/11/23 16:06:22;;;;;;;7.95;4.80;;;;;;;12.39;100.00;101687.06;10374395;28;20045;-72
2023/11/23 16:11:23;;;;;;;11.18;4.05;;;;;;;12.40;100.00;101689.56;10374583;28;20034;-71
2023/11/23 16:16:23;;;;;;;24.52;6.82;;;;;;;12.46;100.00;101696.13;10374080;28;20078;-71
2023/11/23 16:21:24;;;;;;;13.85;3.85;;;;;;;12.45;100.00;101694.44;10374346;28;20042;-71
2023/11/23 16:26:25;;;;;;;14.57;4.47;;;;;;;12.44;100.00;101687.31;10374356;28;20040;-72
2023/11/23 16:31:28;;;;;;;7.80;4.13;;;;;;;12.43;100.00;101699.22;10374593;28;20076;-71
2023/11/23 16:36:29;;;;;;;7.97;6.00;;;;;;;12.43;100.00;101697.34;10375333;28;20051;-71
2023/11/23 16:41:30;;;;;;;6.68;3.80;;;;;;;12.42;100.00;101681.25;10374566;28;20382;-72
2023/11/23 16:46:30;;;;;;;16.67;5.47;;;;;;;12.46;100.00;101671.69;10373397;28;20205;-71
2023/11/23 16:51:31;;;;;;;15.80;6.82;;;;;;;12.46;100.00;101661.66;10372919;28;20049;-72
2023/11/23 16:56:31;;;;;;;19.02;6.43;;;;;;;12.48;100.00;101656.03;10373155;28;20062;-71
2023/11/23 17:01:32;;;;;;;21.27;5.18;;;;;;;12.54;100.00;101666.16;10372679;28;20149;-72
2023/11/23 17:06:32;;;;;;;9.80;4.55;;;;;;;12.56;100.00;101659.47;10372688;28;20418;-72
2023/11/23 17:11:33;;;;;;;20.23;5.70;;;;;;;12.61;100.00;101661.63;10373909;28;20034;-72
2023/11/23 17:16:34;;;;;;;9.30;4.63;;;;;;;12.67;100.00;101649.16;10372699;28;20033;-71
2023/11/23 17:21:34;;;;;;;9.50;4.85;;;;;;;12.68;100.00;101648.09;10372413;28;20393;-71
2023/11/23 17:26:34;;;;;;;10.88;4.45;;;;;;;12.68;100.00;101643.50;10372617;28;20033;-72
2023/11/23 17:31:35;;;;;;;12.27;5.25;;;;;;;12.77;100.00;101633.34;10373669;28;20115;-72
2023/11/23 17:36:35;;;;;;;15.88;4.88;;;;;;;12.86;100.00;101631.31;10371194;28;20393;-71
2023/11/23 17:41:35;;;;;;;18.98;5.72;;;;;;;12.89;100.00;101633.66;10372943;28;20143;-71
2023/11/23 17:46:36;;;;;;;22.40;6.57;;;;;;;12.95;100.00;101639.16;10371776;28;20048;-72
2023/11/23 17:51:38;;;;;;;8.32;4.45;;;;;;;12.95;100.00;101635.59;10370817;28;20044;-71
2023/11/23 17:56:39;;;;;;;13.05;5.07;;;;;;;12.98;100.00;101629.78;10372640;28;20034;-72
2023/11/23 18:01:40;;;;;;;17.85;5.43;;;;;;;13.03;100.00;101635.47;10372685;28;20050;-72
2023/11/23 18:06:40;;;;;;;12.65;4.63;;;;;;;13.04;100.00;101616.22;10372896;28;20038;-71
2023/11/23 18:11:41;;;;;;;9.35;3.85;;;;;;;13.01;100.00;101600.31;10373039;28;20038;-71
2023/11/23 18:16:41;;;;;;;17.20;4.32;;;;;;;13.06;100.00;101599.72;10372817;28;20041;-71
2023/11/23 18:21:42;;;;;;;12.15;4.35;;;;;;;13.02;100.00;101590.31;10371448;28;20445;-72
2023/11/23 18:26:42;;;;;;;11.07;6.05;;;;;;;13.04;100.00;101588.19;10371114;28;20037;-72
2023/11/23 18:31:42;;;;;;;15.15;3.65;;;;;;;13.04;100.00;101591.75;10372083;28;20117;-72
2023/11/23 18:36:45;;;;;;;17.08;6.05;;;;;;;13.04;100.00;101594.47;10370883;28;20034;-72
2023/11/23 18:41:45;;;;;;;8.82;4.00;;;;;;;13.04;100.00;101566.44;10371906;28;20061;-72
2023/11/23 18:46:45;;;;;;;9.00;5.15;;;;;;;13.03;100.00;101570.22;10371093;28;20030;-72
2023/11/23 18:51:46;;;;;;;8.43;4.18;;;;;;;13.01;100.00;101577.72;10371198;28;20069;-72
2023/11/23 18:56:46;;;;;;;12.30;4.32;;;;;;;13.06;100.00;101561.66;10370894;28;20125;-72
2023/11/23 19:01:47;;;;;;;10.48;5.03;;;;;;;13.03;100.00;101557.47;10370823;28;20068;-71
2023/11/23 19:06:48;;;;;;;26.92;5.50;;;;;;;13.09;100.00;101569.44;10369475;28;20502;-72
2023/11/23 19:11:49;;;;;;;12.60;5.43;;;;;;;13.04;100.00;101572.72;10373832;28;20030;-72
2023/11/23 19:16:50;;;;;;;9.35;4.32;;;;;;;13.04;100.00;101550.13;10377134;28;20041;-72
2023/11/23 19:21:50;;;;;;;12.10;4.28;;;;;;;13.03;100.00;101553.91;10376668;28;20045;-72
2023/11/23 19:26:51;;;;;;;9.73;3.22;;;;;;;12.85;100.00;101561.69;10377489;28;20335;-71
2023/11/23 19:31:51;;;;;;;19.67;5.18;;;;;;;12.58;100.00;101550.59;10378122;28;20034;-71
2023/11/23 19:36:54;;;;;;;13.63;3.83;;;;;;;12.42;100.00;101568.00;10375766;28;20033;-71
2023/11/23 19:41:54;;;;;;;15.82;5.32;;;;;;;12.39;100.00;101556.69;10376950;28;20029;-73
2023/11/23 19:46:55;;;;;;;11.02;5.30;;;;;;;12.27;100.00;101538.16;10375641;28;20479;-71
2023/11/23 19:51:58;;;;;;;9.05;4.28;;;;;;;12.22;100.00;101526.19;10375330;28;20030;-72
2023/11/23 19:56:59;;;;;;;21.90;5.00;;;;;;;12.27;100.00;101523.75;10374762;28;20042;-72
2023/11/23 20:02:00;;;;;;;14.52;5.32;;;;;;;12.21;100.00;101524.53;10391644;28;20137;-73
2023/11/23 20:07:03;;;;;;;8.48;3.92;;;;;;;12.23;100.00;101525.19;10374170;28;20026;-71
2023/11/23 20:12:03;;;;;;;15.95;3.60;;;;;;;12.16;100.00;101529.72;10376413;28;20112;-72
2023/11/23 20:17:06;;;;;;;13.15;3.45;;;;;;;12.15;100.00;101514.44;10376213;28;20057;-72
2023/11/23 20:22:07;;;;;;;9.27;4.95;;;;;;;12.18;100.00;101517.59;10357027;28;20033;-72
2023/11/23 20:27:09;;;;;;;6.10;3.75;;;;;;;12.17;100.00;101515.94;10373395;28;20038;-72
2023/11/23 20:32:10;;;;;;;17.15;3.95;;;;;;;12.25;100.00;101532.13;10374013;28;20358;-71
2023/11/23 20:37:10;;;;;;;19.05;4.05;;;;;;;12.00;100.00;101531.63;10373204;28;20058;-72
2023/11/23 20:42:11;;;;;;;11.52;2.88;;;;;;;11.84;100.00;101539.97;10373512;28;20116;-70
2023/11/23 20:47:11;;;;;;;11.32;4.47;;;;;;;11.68;100.00;101538.31;10373863;28;20034;-72
2023/11/23 20:52:13;;;;;;;16.25;5.68;;;;;;;11.55;100.00;101529.97;10374669;28;20462;-73
2023/11/23 20:57:14;;;;;;;20.63;6.78;;;;;;;11.48;100.00;101535.31;10372425;28;20077;-72
2023/11/23 21:02:16;;;;;;;16.38;5.35;;;;;;;11.31;100.00;101536.53;10372846;28;20081;-72
2023/11/23 21:07:17;;;;;;;12.85;4.57;;;;;;;11.22;100.00;101533.06;10373485;28;20045;-72
2023/11/23 21:12:19;;;;;;;23.95;5.90;;;;;;;11.23;100.00;101536.63;10373178;28;20037;-72
2023/11/23 21:17:19;;;;;;;23.83;6.35;;;;;;;11.19;100.00;101530.72;10373463;28;20040;-71
2023/11/23 21:22:20;;;;;;;26.45;6.10;;;;;;;11.15;100.00;101549.25;10372968;28;20033;-71
2023/11/23 21:27:26;;;;;;;12.30;5.85;;;;;;;11.02;100.00;101538.19;10372141;28;20113;-72
2023/11/23 21:32:26;;;;;;;19.38;5.28;;;;;;;10.81;100.00;101540.78;10373038;28;20041;-72
2023/11/23 21:37:27;;;;;;;21.83;7.25;;;;;;;10.84;100.00;101535.81;10371721;28;20060;-72
2023/11/23 21:42:27;;;;;;;31.38;7.05;;;;;;;10.69;100.00;101524.97;10370132;28;20445;-71
2023/11/23 21:47:28;;;;;;;10.38;4.97;;;;;;;10.61;100.00;101522.31;10371191;28;20068;-71
2023/11/23 21:52:28;;;;;;;17.95;5.93;;;;;;;10.49;100.00;101510.22;10370432;28;20068;-71
2023/11/23 21:57:29;;;;;;;20.67;5.07;;;;;;;10.50;100.00;101524.63;10372244;28;20042;-71
2023/11/23 22:02:29;;;;;;;41.08;8.85;;;;;;;10.48;100.00;101522.09;10372830;28;20456;-71
2023/11/23 22:07:29;;;;;;;31.27;7.60;;;;;;;10.56;100.00;101523.88;10371054;28;20054;-71
2023/11/23 22:12:30;;;;;;;15.48;4.78;;;;;;;10.59;100.00;101507.28;10371193;28;20038;-71
2023/11/23 22:17:31;;;;;;;20.40;7.63;;;;;;;10.60;100.00;101511.69;10372390;28;20128;-71
2023/11/23 22:22:31;;;;;;;25.63;6.40;;;;;;;10.57;100.00;101509.34;10371024;28;20104;-71
2023/11/23 22:27:32;;;;;;;22.58;8.85;;;;;;;10.63;100.00;101501.31;10371628;28;20033;-71
2023/11/23 22:32:33;;;;;;;30.42;7.53;;;;;;;10.64;100.00;101503.00;10371595;28;20057;-71
2023/11/23 22:37:33;;;;;;;21.85;7.50;;;;;;;10.69;100.00;101516.00;10371566;28;20384;-71